Time;durP1;ratioP1;P1;durP2;ratioP2;P2;SDS_P1;SDS_P2;PMS_P1;PMS_P2;Temp;Humidity;BMP_temperature;BMP_pressure;BME280_temperature;BME280_humidity;BME280_pressure;Samples;Min_cycle;Max_cycle;Signal;HPM_P1;HPM_P2
2024/02/21 00:01:27;;;;;;;12.33;5.60;;;;;;;;;;5116861;28;19967;-59
2024/02/21 00:03:53;;;;;;;15.05;6.20;;;;;;;;;;5124638;28;20030;-58
2024/02/21 00:06:18;;;;;;;17.03;6.13;;;;;;;;;;5120736;28;20028;-59
2024/02/21 00:08:43;;;;;;;15.90;6.33;;;;;;;;;;5122478;28;20024;-58
2024/02/21 00:11:09;;;;;;;14.73;6.22;;;;;;;;;;5112244;28;20694;-57
2024/02/21 00:13:35;;;;;;;11.83;5.17;;;;;;;;;;5115004;28;20024;-57
2024/02/21 00:16:00;;;;;;;11.50;5.67;;;;;;;;;;5118396;28;20294;-59
2024/02/21 00:18:25;;;;;;;15.68;5.72;;;;;;;;;;5112138;28;20490;-58
2024/02/21 00:20:51;;;;;;;13.03;5.47;;;;;;;;;;5116685;28;20082;-58
2024/02/21 00:23:16;;;;;;;15.33;5.83;;;;;;;;;;5118502;28;20056;-59
2024/02/21 00:25:41;;;;;;;19.17;5.60;;;;;;;;;;5117697;28;20024;-58
2024/02/21 00:28:07;;;;;;;15.98;6.25;;;;;;;;;;5115112;28;20099;-58
2024/02/21 00:30:32;;;;;;;17.20;6.57;;;;;;;;;;5115014;28;20034;-58
2024/02/21 00:32:58;;;;;;;12.85;5.82;;;;;;;;;;5123139;28;20051;-60
2024/02/21 00:35:24;;;;;;;18.53;5.70;;;;;;;;;;5115166;28;20036;-57
2024/02/21 00:37:50;;;;;;;;;;;;;;;;;;5115523;28;20035;-56
2024/02/21 00:40:19;;;;;;;19.07;5.57;;;;;;;;;;5126201;28;19934;-59
2024/02/21 00:42:45;;;;;;;12.23;5.10;;;;;;;;;;5108850;28;20024;-59
2024/02/21 00:45:11;;;;;;;17.05;6.03;;;;;;;;;;5114662;28;20253;-63
2024/02/21 00:47:37;;;;;;;15.43;6.70;;;;;;;;;;5114862;28;20091;-57
2024/02/21 00:50:02;;;;;;;13.57;5.77;;;;;;;;;;5123340;28;20036;-58
2024/02/21 00:52:28;;;;;;;14.90;6.18;;;;;;;;;;5114980;28;20051;-59
2024/02/21 00:54:53;;;;;;;16.73;6.47;;;;;;;;;;5121706;28;20055;-59
2024/02/21 00:57:19;;;;;;;12.50;5.53;;;;;;;;;;5122369;28;20240;-59
2024/02/21 00:59:44;;;;;;;22.10;6.90;;;;;;;;;;5115882;28;20035;-60
2024/02/21 01:02:09;;;;;;;17.20;4.87;;;;;;;;;;5107338;28;20497;-59
2024/02/21 01:04:35;;;;;;;16.70;5.30;;;;;;;;;;5112102;28;20032;-59
2024/02/21 01:07:00;;;;;;;20.33;5.67;;;;;;;;;;5115806;28;20047;-62
2024/02/21 01:09:25;;;;;;;15.07;6.37;;;;;;;;;;5111926;28;20020;-59
2024/02/21 01:11:51;;;;;;;19.30;5.97;;;;;;;;;;5113519;28;20059;-59
2024/02/21 01:14:17;;;;;;;18.48;5.57;;;;;;;;;;5113260;28;20044;-59
2024/02/21 01:16:42;;;;;;;12.55;5.93;;;;;;;;;;5110451;28;20039;-59
2024/02/21 01:19:08;;;;;;;14.80;5.10;;;;;;;;;;5114655;28;20070;-58
2024/02/21 01:21:33;;;;;;;13.97;5.50;;;;;;;;;;5115421;28;20058;-61
2024/02/21 01:23:59;;;;;;;18.17;5.80;;;;;;;;;;5113124;28;20290;-60
2024/02/21 01:26:25;;;;;;;17.25;5.53;;;;;;;;;;5115689;28;20066;-58
2024/02/21 01:28:50;;;;;;;16.23;5.23;;;;;;;;;;5118652;28;20043;-57
2024/02/21 01:31:16;;;;;;;11.53;4.77;;;;;;;;;;5127957;28;20043;-56
2024/02/21 01:33:42;;;;;;;10.00;4.95;;;;;;;;;;5118039;28;20020;-58
2024/02/21 01:36:08;;;;;;;16.77;4.82;;;;;;;;;;5125862;28;20057;-55
2024/02/21 01:38:33;;;;;;;11.33;4.73;;;;;;;;;;5120852;28;20024;-56
2024/02/21 01:40:59;;;;;;;10.60;4.10;;;;;;;;;;5121901;28;20328;-59
2024/02/21 01:43:26;;;;;;;;;;;;;;;;;;5120514;28;20039;-57
2024/02/21 01:45:55;;;;;;;14.13;4.60;;;;;;;;;;5127481;28;19911;-57
2024/02/21 01:48:22;;;;;;;13.17;5.10;;;;;;;;;;5119666;28;20049;-57
2024/02/21 01:50:48;;;;;;;15.90;5.28;;;;;;;;;;5124071;28;20272;-57
2024/02/21 01:53:34;;;;;;;13.97;4.60;;;;;;;;;;5103837;28;20092;-60
2024/02/21 01:56:00;;;;;;;10.73;5.23;;;;;;;;;;5115103;28;20273;-60
2024/02/21 01:58:26;;;;;;;22.48;4.75;;;;;;;;;;5107953;28;20317;-59
2024/02/21 02:00:52;;;;;;;16.38;6.13;;;;;;;;;;5113346;28;20050;-59
2024/02/21 02:03:18;;;;;;;16.80;5.43;;;;;;;;;;5115213;28;20024;-57
2024/02/21 02:05:47;;;;;;;13.32;4.55;;;;;;;;;;5121430;28;20043;-58
2024/02/21 02:08:18;;;;;;;13.03;4.67;;;;;;;;;;5115951;28;20040;-59
2024/02/21 02:10:44;;;;;;;26.50;5.47;;;;;;;;;;5114528;28;20303;-59
2024/02/21 02:13:10;;;;;;;21.38;4.60;;;;;;;;;;5114310;28;20253;-60
2024/02/21 02:15:45;;;;;;;11.63;3.80;;;;;;;;;;5115341;28;20046;-59
2024/02/21 02:18:11;;;;;;;15.27;4.30;;;;;;;;;;5115192;28;20042;-57
2024/02/21 02:20:37;;;;;;;13.27;5.00;;;;;;;;;;5115569;28;20330;-58
2024/02/21 02:23:10;;;;;;;17.92;5.25;;;;;;;;;;5116795;28;20261;-59
2024/02/21 02:25:37;;;;;;;21.33;5.67;;;;;;;;;;5115713;28;20024;-60
2024/02/21 02:28:03;;;;;;;15.40;4.22;;;;;;;;;;5125348;28;20268;-61
2024/02/21 02:30:32;;;;;;;18.10;5.63;;;;;;;;;;5127554;28;20028;-60
2024/02/21 02:32:57;;;;;;;16.97;5.87;;;;;;;;;;5125081;28;20267;-60
2024/02/21 02:35:22;;;;;;;14.47;5.30;;;;;;;;;;5128095;28;20263;-59
2024/02/21 02:37:49;;;;;;;18.02;5.40;;;;;;;;;;5126229;28;20035;-59
2024/02/21 02:40:15;;;;;;;12.50;5.30;;;;;;;;;;5116410;28;20061;-60
2024/02/21 02:42:40;;;;;;;17.43;6.33;;;;;;;;;;5116904;28;20261;-60
2024/02/21 02:45:07;;;;;;;17.93;6.10;;;;;;;;;;5112736;28;20287;-58
2024/02/21 02:47:34;;;;;;;23.77;7.32;;;;;;;;;;5124854;28;20027;-60
2024/02/21 02:49:59;;;;;;;21.70;6.33;;;;;;;;;;5120231;28;20036;-60
2024/02/21 02:52:25;;;;;;;15.13;6.03;;;;;;;;;;5115773;28;20268;-58
2024/02/21 02:54:51;;;;;;;25.20;8.37;;;;;;;;;;5115941;28;20047;-59
2024/02/21 02:57:17;;;;;;;23.27;8.27;;;;;;;;;;5116584;28;20036;-60
2024/02/21 02:59:49;;;;;;;26.50;7.63;;;;;;;;;;5120630;28;20335;-57
2024/02/21 03:02:16;;;;;;;17.73;8.10;;;;;;;;;;5124321;28;20028;-59
2024/02/21 03:04:41;;;;;;;20.20;7.88;;;;;;;;;;5116362;28;20252;-60
2024/02/21 03:07:06;;;;;;;19.63;7.77;;;;;;;;;;5119176;28;20035;-62
2024/02/21 03:09:32;;;;;;;17.85;7.57;;;;;;;;;;5116211;28;20110;-58
2024/02/21 03:12:02;;;;;;;18.75;8.35;;;;;;;;;;5116593;28;20036;-58
2024/02/21 03:14:28;;;;;;;18.70;8.60;;;;;;;;;;5116296;28;20029;-58
2024/02/21 03:16:54;;;;;;;17.88;7.82;;;;;;;;;;5113653;28;20352;-60
2024/02/21 03:19:19;;;;;;;19.27;8.17;;;;;;;;;;5114733;28;20043;-59
2024/02/21 03:21:45;;;;;;;27.40;8.90;;;;;;;;;;5110990;28;20020;-60
2024/02/21 03:24:10;;;;;;;17.33;8.17;;;;;;;;;;5118993;28;20028;-59
2024/02/21 03:26:36;;;;;;;20.63;7.88;;;;;;;;;;5113669;28;20056;-58
2024/02/21 03:29:01;;;;;;;19.90;7.80;;;;;;;;;;5112869;28;20044;-60
2024/02/21 03:31:27;;;;;;;21.50;7.95;;;;;;;;;;5111318;28;20498;-58
2024/02/21 03:33:52;;;;;;;21.20;7.50;;;;;;;;;;5117200;28;20031;-59
2024/02/21 03:36:18;;;;;;;26.02;7.82;;;;;;;;;;5113597;28;20483;-59
2024/02/21 03:38:44;;;;;;;26.10;7.50;;;;;;;;;;5112829;28;20055;-57
2024/02/21 03:41:10;;;;;;;;;;;;;;;;;;5115371;28;20027;-58
2024/02/21 03:43:37;;;;;;;20.47;6.73;;;;;;;;;;5114574;28;19975;-59
2024/02/21 03:46:02;;;;;;;25.97;8.13;;;;;;;;;;5119193;28;20028;-58
2024/02/21 03:48:28;;;;;;;12.60;6.90;;;;;;;;;;5116719;28;20260;-57
2024/02/21 03:50:53;;;;;;;26.80;8.73;;;;;;;;;;5127187;28;20272;-58
2024/02/21 03:53:19;;;;;;;17.73;7.43;;;;;;;;;;5111961;28;20047;-57
2024/02/21 03:55:44;;;;;;;17.65;7.55;;;;;;;;;;5108799;28;20036;-61
2024/02/21 03:58:10;;;;;;;24.20;6.67;;;;;;;;;;5127327;28;20040;-62
2024/02/21 04:00:35;;;;;;;18.97;6.90;;;;;;;;;;5115483;28;20392;-60
2024/02/21 04:03:00;;;;;;;24.00;7.60;;;;;;;;;;5114700;28;20020;-59
2024/02/21 04:05:26;;;;;;;20.33;7.27;;;;;;;;;;5115024;28;20059;-58
2024/02/21 04:07:53;;;;;;;10.67;5.70;;;;;;;;;;5128350;28;20249;-60
2024/02/21 04:10:18;;;;;;;16.47;7.10;;;;;;;;;;5115385;28;20341;-59
2024/02/21 04:12:44;;;;;;;15.80;6.07;;;;;;;;;;5115229;28;20260;-60
2024/02/21 04:15:09;;;;;;;19.30;6.30;;;;;;;;;;5115228;28;20282;-58
2024/02/21 04:17:35;;;;;;;17.98;6.60;;;;;;;;;;5124394;28;20387;-57
2024/02/21 04:20:04;;;;;;;19.60;7.20;;;;;;;;;;5115845;28;20081;-60
2024/02/21 04:22:31;;;;;;;17.73;6.53;;;;;;;;;;5102263;28;20114;-60
2024/02/21 04:24:56;;;;;;;15.77;6.60;;;;;;;;;;5115449;28;20332;-59
2024/02/21 04:27:22;;;;;;;20.97;6.80;;;;;;;;;;5114622;28;20095;-59
2024/02/21 04:29:47;;;;;;;14.80;6.75;;;;;;;;;;5115191;28;20272;-58
2024/02/21 04:32:13;;;;;;;16.50;6.87;;;;;;;;;;5127212;28;20039;-59
2024/02/21 04:34:40;;;;;;;20.20;7.90;;;;;;;;;;5115121;28;20028;-59
2024/02/21 04:37:05;;;;;;;21.73;7.17;;;;;;;;;;5121217;28;20272;-58
2024/02/21 04:39:31;;;;;;;18.00;7.87;;;;;;;;;;5114967;28;20366;-59
2024/02/21 04:41:56;;;;;;;16.80;6.70;;;;;;;;;;5114082;28;20028;-60
2024/02/21 04:44:22;;;;;;;17.60;7.33;;;;;;;;;;5114946;28;20260;-58
2024/02/21 04:46:47;;;;;;;22.50;6.97;;;;;;;;;;5118741;28;20261;-59
2024/02/21 04:49:13;;;;;;;19.40;7.40;;;;;;;;;;5121022;28;20095;-59
2024/02/21 04:51:39;;;;;;;12.33;6.37;;;;;;;;;;5115385;28;20047;-59
2024/02/21 04:54:05;;;;;;;18.75;6.68;;;;;;;;;;5114946;28;20032;-59
2024/02/21 04:56:30;;;;;;;21.60;8.10;;;;;;;;;;5119447;28;20036;-59
2024/02/21 04:58:56;;;;;;;26.23;7.75;;;;;;;;;;5123318;28;20062;-55
2024/02/21 05:01:21;;;;;;;13.37;6.97;;;;;;;;;;5118710;28;20043;-59
2024/02/21 05:03:47;;;;;;;19.67;8.07;;;;;;;;;;5117438;28;20261;-54
2024/02/21 05:06:12;;;;;;;13.90;5.97;;;;;;;;;;5118979;28;20272;-59
2024/02/21 05:08:37;;;;;;;14.07;7.33;;;;;;;;;;5127355;28;20272;-59
2024/02/21 05:11:03;;;;;;;23.63;9.05;;;;;;;;;;5114802;28;20029;-59
2024/02/21 05:13:29;;;;;;;21.08;8.23;;;;;;;;;;5109140;28;20032;-59
2024/02/21 05:15:54;;;;;;;27.80;9.38;;;;;;;;;;5118573;28;20032;-57
2024/02/21 05:18:20;;;;;;;26.58;9.43;;;;;;;;;;5124677;28;20064;-58
2024/02/21 05:20:46;;;;;;;31.75;10.43;;;;;;;;;;5118016;28;20108;-57
2024/02/21 05:23:11;;;;;;;27.37;10.67;;;;;;;;;;5117640;28;20036;-58
2024/02/21 05:25:37;;;;;;;25.52;8.77;;;;;;;;;;5105776;28;20043;-57
2024/02/21 05:28:03;;;;;;;29.77;9.77;;;;;;;;;;5125626;28;20098;-59
2024/02/21 05:30:29;;;;;;;22.08;9.63;;;;;;;;;;5121174;28;20252;-59
2024/02/21 05:32:55;;;;;;;28.83;10.55;;;;;;;;;;5128064;28;20036;-57
2024/02/21 05:35:24;;;;;;;22.00;9.75;;;;;;;;;;5118163;28;20095;-58
2024/02/21 05:37:52;;;;;;;25.60;11.53;;;;;;;;;;5125962;28;20047;-60
2024/02/21 05:40:18;;;;;;;33.87;10.77;;;;;;;;;;5117674;28;20363;-59
2024/02/21 05:42:43;;;;;;;23.50;10.43;;;;;;;;;;5125474;28;20264;-59
2024/02/21 05:45:09;;;;;;;24.70;10.50;;;;;;;;;;5113464;28;20033;-60
2024/02/21 05:47:34;;;;;;;21.60;10.90;;;;;;;;;;5118638;28;20055;-59
2024/02/21 05:50:00;;;;;;;25.20;11.33;;;;;;;;;;5119783;28;20036;-59
2024/02/21 05:52:25;;;;;;;25.88;11.00;;;;;;;;;;5122830;28;20095;-59
2024/02/21 05:54:51;;;;;;;21.80;10.38;;;;;;;;;;5110847;28;20033;-57
2024/02/21 05:57:19;;;;;;;23.15;9.65;;;;;;;;;;5119027;28;20083;-60
2024/02/21 05:59:45;;;;;;;30.27;11.77;;;;;;;;;;5117196;28;20053;-60
2024/02/21 06:02:10;;;;;;;29.83;10.27;;;;;;;;;;5117803;28;20260;-59
2024/02/21 06:04:36;;;;;;;22.80;10.23;;;;;;;;;;5122292;28;20024;-58
2024/02/21 06:07:01;;;;;;;23.77;11.23;;;;;;;;;;5122469;28;20024;-59
2024/02/21 06:09:27;;;;;;;25.42;11.07;;;;;;;;;;5133503;28;20047;-60
2024/02/21 06:11:53;;;;;;;25.20;11.27;;;;;;;;;;5108642;28;20060;-60
2024/02/21 06:14:19;;;;;;;30.38;12.13;;;;;;;;;;5110686;28;20032;-60
2024/02/21 06:16:45;;;;;;;28.02;11.43;;;;;;;;;;5102779;28;20033;-59
2024/02/21 06:19:10;;;;;;;26.10;12.00;;;;;;;;;;5126217;28;20032;-58
2024/02/21 06:21:36;;;;;;;33.33;11.32;;;;;;;;;;5126611;28;20034;-59
2024/02/21 06:24:03;;;;;;;24.33;10.13;;;;;;;;;;5120943;28;20027;-59
2024/02/21 06:26:28;;;;;;;26.08;9.55;;;;;;;;;;5120239;28;20028;-57
2024/02/21 06:28:54;;;;;;;29.33;9.93;;;;;;;;;;5127887;28;20053;-58
2024/02/21 06:31:19;;;;;;;47.17;11.40;;;;;;;;;;5124509;28;20306;-58
2024/02/21 06:33:45;;;;;;;24.55;9.95;;;;;;;;;;5109646;28;20048;-58
2024/02/21 06:36:10;;;;;;;19.27;8.57;;;;;;;;;;5117098;28;20028;-59
2024/02/21 06:38:36;;;;;;;28.35;9.02;;;;;;;;;;5104873;28;20079;-55
2024/02/21 06:41:02;;;;;;;19.90;8.13;;;;;;;;;;5115985;28;20032;-58
2024/02/21 06:43:28;;;;;;;30.67;10.02;;;;;;;;;;5116679;28;20328;-58
2024/02/21 06:45:55;;;;;;;23.45;8.93;;;;;;;;;;5109485;28;20024;-56
2024/02/21 06:48:20;;;;;;;20.50;8.63;;;;;;;;;;5111938;28;20043;-59
2024/02/21 06:50:46;;;;;;;20.65;9.25;;;;;;;;;;5113559;28;20032;-57
2024/02/21 06:53:11;;;;;;;25.17;9.17;;;;;;;;;;5111010;28;20042;-55
2024/02/21 06:55:36;;;;;;;21.63;8.63;;;;;;;;;;5110291;28;20061;-57
2024/02/21 06:58:02;;;;;;;32.17;9.93;;;;;;;;;;5120482;28;20260;-58
2024/02/21 07:00:28;;;;;;;19.43;8.83;;;;;;;;;;5115977;28;20089;-56
2024/02/21 07:02:54;;;;;;;;;;;;;;;;;;5111544;28;20028;-61
2024/02/21 07:05:19;;;;;;;29.33;9.23;;;;;;;;;;5116221;28;19923;-59
2024/02/21 07:07:45;;;;;;;21.30;9.10;;;;;;;;;;5120335;28;20031;-58
2024/02/21 07:10:11;;;;;;;23.50;9.07;;;;;;;;;;5114687;28;20335;-58
2024/02/21 07:12:38;;;;;;;;;;;;;;;;;;5123161;28;20049;-58
2024/02/21 07:15:04;;;;;;;25.30;9.10;;;;;;;;;;5114860;28;19908;-58
2024/02/21 07:17:30;;;;;;;26.40;9.70;;;;;;;;;;5113156;28;20032;-60
2024/02/21 07:19:56;;;;;;;18.27;8.55;;;;;;;;;;5109944;28;20097;-59
2024/02/21 07:22:22;;;;;;;18.33;8.67;;;;;;;;;;5113440;28;20058;-59
2024/02/21 07:24:47;;;;;;;21.40;8.63;;;;;;;;;;5116248;28;20260;-59
2024/02/21 07:27:16;;;;;;;24.73;9.13;;;;;;;;;;5111677;28;20403;-59
2024/02/21 07:29:41;;;;;;;21.00;10.20;;;;;;;;;;5110462;28;20080;-59
2024/02/21 07:32:08;;;;;;;24.03;9.17;;;;;;;;;;5106771;28;20257;-59
2024/02/21 07:34:33;;;;;;;25.10;9.77;;;;;;;;;;5115464;28;20336;-66
2024/02/21 07:36:59;;;;;;;25.33;8.37;;;;;;;;;;5104811;28;20276;-59
2024/02/21 07:39:25;;;;;;;26.88;10.20;;;;;;;;;;5128193;28;20038;-59
2024/02/21 07:41:50;;;;;;;28.02;9.10;;;;;;;;;;5116100;28;20051;-60
2024/02/21 07:44:15;;;;;;;21.23;8.70;;;;;;;;;;5105156;28;20062;-58
2024/02/21 07:46:41;;;;;;;22.33;8.20;;;;;;;;;;5110169;28;20260;-60
2024/02/21 07:49:06;;;;;;;23.43;8.90;;;;;;;;;;5123311;28;20264;-56
2024/02/21 07:51:32;;;;;;;26.35;10.02;;;;;;;;;;5117583;28;20095;-59
2024/02/21 07:53:58;;;;;;;22.02;8.75;;;;;;;;;;5115521;28;20040;-58
2024/02/21 07:56:23;;;;;;;23.50;8.67;;;;;;;;;;5115129;28;20028;-58
2024/02/21 07:58:48;;;;;;;27.97;9.73;;;;;;;;;;5116454;28;20288;-59
2024/02/21 08:01:20;;;;;;;22.15;8.60;;;;;;;;;;5117829;28;20049;-56
2024/02/21 08:03:46;;;;;;;21.50;8.50;;;;;;;;;;5104368;28;20036;-58
2024/02/21 08:06:13;;;;;;;15.95;7.07;;;;;;;;;;5114731;28;20252;-58
2024/02/21 08:08:39;;;;;;;24.27;8.98;;;;;;;;;;5116388;28;20028;-60
2024/02/21 08:11:04;;;;;;;29.98;8.65;;;;;;;;;;5114782;28;20077;-56
2024/02/21 08:13:29;;;;;;;18.43;7.97;;;;;;;;;;5110878;28;20051;-60
2024/02/21 08:15:55;;;;;;;22.60;7.97;;;;;;;;;;5104795;28;20267;-61
2024/02/21 08:18:21;;;;;;;22.47;7.80;;;;;;;;;;5120002;28;20267;-58
2024/02/21 08:20:46;;;;;;;18.30;9.10;;;;;;;;;;5107961;28;20310;-59
2024/02/21 08:23:11;;;;;;;23.37;9.07;;;;;;;;;;5117263;28;20052;-59
2024/02/21 08:25:36;;;;;;;26.40;8.23;;;;;;;;;;5107677;28;20472;-58
2024/02/21 08:28:02;;;;;;;19.30;9.20;;;;;;;;;;5118246;28;20024;-59
2024/02/21 08:30:27;;;;;;;20.40;8.43;;;;;;;;;;5119713;28;20038;-59
2024/02/21 08:32:53;;;;;;;27.50;10.23;;;;;;;;;;5122073;28;20067;-59
2024/02/21 08:35:19;;;;;;;;;;;;;;;;;;5108949;28;20028;-59
2024/02/21 08:37:47;;;;;;;27.60;8.00;;;;;;;;;;5109990;28;19915;-59
2024/02/21 08:40:13;;;;;;;17.63;7.60;;;;;;;;;;5113693;28;20128;-58
2024/02/21 08:42:39;;;;;;;23.02;8.40;;;;;;;;;;5126291;28;20256;-61
2024/02/21 08:45:04;;;;;;;17.15;7.82;;;;;;;;;;5111311;28;20040;-59
2024/02/21 08:47:30;;;;;;;15.85;7.35;;;;;;;;;;5106066;28;20084;-57
2024/02/21 08:49:55;;;;;;;31.52;8.73;;;;;;;;;;5110417;28;20034;-59
2024/02/21 08:52:20;;;;;;;17.67;8.27;;;;;;;;;;5109976;28;20097;-60
2024/02/21 08:54:46;;;;;;;18.90;8.10;;;;;;;;;;5114454;28;20039;-59
2024/02/21 08:57:11;;;;;;;29.97;9.10;;;;;;;;;;5114378;28;20047;-60
2024/02/21 08:59:36;;;;;;;20.17;8.20;;;;;;;;;;5105721;28;20042;-60
2024/02/21 09:02:03;;;;;;;22.15;8.00;;;;;;;;;;5101709;28;20055;-59
2024/02/21 09:04:29;;;;;;;26.00;8.23;;;;;;;;;;5101552;28;20128;-58
2024/02/21 09:06:54;;;;;;;20.90;8.80;;;;;;;;;;5111391;28;20260;-57
2024/02/21 09:09:19;;;;;;;30.80;8.97;;;;;;;;;;5124577;28;20099;-60
2024/02/21 09:11:45;;;;;;;20.52;7.13;;;;;;;;;;5116585;28;20024;-60
2024/02/21 09:14:11;;;;;;;19.67;7.73;;;;;;;;;;5110349;28;20040;-58
2024/02/21 09:16:37;;;;;;;17.07;7.40;;;;;;;;;;5100657;28;20048;-59
2024/02/21 09:19:04;;;;;;;16.30;7.30;;;;;;;;;;5115204;28;20268;-58
2024/02/21 09:21:30;;;;;;;15.60;6.40;;;;;;;;;;5112190;28;20272;-58
2024/02/21 09:23:55;;;;;;;18.55;7.78;;;;;;;;;;5100417;28;20257;-59
2024/02/21 09:26:20;;;;;;;13.37;6.73;;;;;;;;;;5117920;28;20035;-60
2024/02/21 09:28:46;;;;;;;13.03;7.00;;;;;;;;;;5114437;28;20440;-60
2024/02/21 09:31:11;;;;;;;11.03;6.07;;;;;;;;;;5111476;28;20084;-59
2024/02/21 09:33:37;;;;;;;16.52;6.75;;;;;;;;;;5117352;28;20040;-59
2024/02/21 09:36:05;;;;;;;16.48;6.32;;;;;;;;;;5108857;28;20028;-63
2024/02/21 09:38:31;;;;;;;17.27;6.40;;;;;;;;;;5111308;28;20067;-60
2024/02/21 09:41:19;;;;;;;18.25;7.00;;;;;;;;;;5116017;28;20288;-61
2024/02/21 09:43:45;;;;;;;13.05;6.75;;;;;;;;;;5115899;28;20039;-57
2024/02/21 09:46:21;;;;;;;17.10;5.97;;;;;;;;;;5117551;28;20028;-58
2024/02/21 09:48:49;;;;;;;12.93;6.00;;;;;;;;;;5114872;28;20265;-60
2024/02/21 09:51:15;;;;;;;15.40;6.50;;;;;;;;;;5108888;28;20263;-62
2024/02/21 09:53:40;;;;;;;12.32;5.35;;;;;;;;;;5117435;28;20276;-60
2024/02/21 09:56:07;;;;;;;16.20;5.67;;;;;;;;;;5107862;28;20051;-59
2024/02/21 09:58:33;;;;;;;12.27;5.30;;;;;;;;;;5116003;28;20088;-60
2024/02/21 10:01:00;;;;;;;13.98;5.90;;;;;;;;;;5114443;28;20304;-59
2024/02/21 10:03:25;;;;;;;12.00;5.82;;;;;;;;;;5117154;28;20061;-59
2024/02/21 10:05:51;;;;;;;11.47;5.20;;;;;;;;;;5110964;28;20028;-59
2024/02/21 10:08:17;;;;;;;12.20;5.38;;;;;;;;;;5121756;28;20256;-57
2024/02/21 10:10:44;;;;;;;13.43;5.03;;;;;;;;;;5115090;28;20039;-59
2024/02/21 10:13:10;;;;;;;11.50;5.38;;;;;;;;;;5106676;28;20051;-60
2024/02/21 10:15:35;;;;;;;9.43;4.95;;;;;;;;;;5116930;28;20036;-62
2024/02/21 10:18:01;;;;;;;15.57;5.80;;;;;;;;;;5118891;28;20039;-60
2024/02/21 10:20:27;;;;;;;18.30;5.47;;;;;;;;;;5109049;28;20043;-58
2024/02/21 10:22:52;;;;;;;;;;;;;;;;;;5121133;28;20042;-58
2024/02/21 10:25:19;;;;;;;10.50;5.03;;;;;;;;;;5107144;28;19935;-58
2024/02/21 10:27:44;;;;;;;;;;;;;;;;;;5106860;28;20028;-57
2024/02/21 10:30:13;;;;;;;10.77;5.30;;;;;;;;;;5122242;28;19912;-59
2024/02/21 10:32:49;;;;;;;10.20;5.70;;;;;;;;;;5109501;28;20032;-59
2024/02/21 10:35:14;;;;;;;14.20;6.20;;;;;;;;;;5109905;28;20260;-58
2024/02/21 10:37:40;;;;;;;14.85;5.63;;;;;;;;;;5110798;28;20262;-61
2024/02/21 10:40:05;;;;;;;11.83;5.37;;;;;;;;;;5115925;28;20042;-58
2024/02/21 10:42:32;;;;;;;14.02;6.03;;;;;;;;;;5109128;28;20028;-62
2024/02/21 10:45:00;;;;;;;11.15;6.38;;;;;;;;;;5111838;28;20092;-58
2024/02/21 10:47:27;;;;;;;12.23;5.97;;;;;;;;;;5116573;28;20032;-58
2024/02/21 10:50:02;;;;;;;12.80;6.07;;;;;;;;;;5116104;28;20279;-58
2024/02/21 10:52:27;;;;;;;15.77;7.03;;;;;;;;;;5114865;28;20281;-59
2024/02/21 10:54:56;;;;;;;14.03;7.50;;;;;;;;;;5110081;28;20254;-60
2024/02/21 10:57:22;;;;;;;16.33;7.70;;;;;;;;;;5110228;28;20036;-57
2024/02/21 10:59:48;;;;;;;14.73;7.53;;;;;;;;;;5122520;28;20744;-59
2024/02/21 11:02:14;;;;;;;16.38;6.82;;;;;;;;;;5104695;28;20032;-59
2024/02/21 11:04:40;;;;;;;17.65;7.25;;;;;;;;;;5105189;28;20024;-59
2024/02/21 11:07:06;;;;;;;23.00;9.00;;;;;;;;;;5115188;28;20123;-61
2024/02/21 11:09:34;;;;;;;15.13;8.23;;;;;;;;;;5116377;28;20058;-59
2024/02/21 11:12:03;;;;;;;19.97;7.83;;;;;;;;;;5112379;28;20091;-59
2024/02/21 11:14:32;;;;;;;18.43;8.00;;;;;;;;;;5117028;28;20313;-59
2024/02/21 11:16:58;;;;;;;16.30;7.43;;;;;;;;;;5110197;28;20324;-58
2024/02/21 11:19:23;;;;;;;15.33;8.00;;;;;;;;;;5110095;28;20311;-60
2024/02/21 11:21:49;;;;;;;18.47;7.70;;;;;;;;;;5106816;28;20261;-60
2024/02/21 11:24:25;;;;;;;20.60;7.40;;;;;;;;;;5115007;28;20299;-59
2024/02/21 11:26:50;;;;;;;20.73;8.17;;;;;;;;;;5103820;28;20100;-55
2024/02/21 11:29:22;;;;;;;15.80;7.30;;;;;;;;;;5104163;28;20299;-58
2024/02/21 11:31:48;;;;;;;15.93;7.97;;;;;;;;;;5105347;28;20280;-59
2024/02/21 11:34:17;;;;;;;19.15;8.32;;;;;;;;;;5106486;28;20325;-57
2024/02/21 11:36:50;;;;;;;15.27;7.00;;;;;;;;;;5114182;28;20028;-60
2024/02/21 11:39:25;;;;;;;17.50;6.40;;;;;;;;;;5122014;28;20293;-56
2024/02/21 11:42:03;;;;;;;14.50;5.93;;;;;;;;;;5116896;28;20256;-58
2024/02/21 11:44:29;;;;;;;15.07;7.23;;;;;;;;;;5111363;28;20272;-59
2024/02/21 11:46:55;;;;;;;11.55;6.22;;;;;;;;;;5107254;28;20275;-59
2024/02/21 11:49:21;;;;;;;16.80;6.57;;;;;;;;;;5116547;28;20103;-58
2024/02/21 11:51:46;;;;;;;14.27;6.33;;;;;;;;;;5103250;28;20040;-57
2024/02/21 11:54:16;;;;;;;15.93;5.78;;;;;;;;;;5108243;28;20036;-58
2024/02/21 11:56:41;;;;;;;10.67;5.43;;;;;;;;;;5102305;28;20084;-57
2024/02/21 11:59:06;;;;;;;15.73;5.50;;;;;;;;;;5108395;28;20289;-59
2024/02/21 12:01:32;;;;;;;14.37;5.73;;;;;;;;;;5103095;28;20273;-58
2024/02/21 12:03:57;;;;;;;19.40;5.85;;;;;;;;;;5101902;28;20058;-59
2024/02/21 12:06:23;;;;;;;13.00;5.23;;;;;;;;;;5111863;28;20028;-58
2024/02/21 12:08:48;;;;;;;15.00;5.28;;;;;;;;;;5108205;28;20086;-58
2024/02/21 12:11:21;;;;;;;17.30;4.40;;;;;;;;;;5115990;28;20043;-57
2024/02/21 12:13:47;;;;;;;13.73;5.10;;;;;;;;;;5105466;28;20029;-58
2024/02/21 12:16:14;;;;;;;12.63;6.20;;;;;;;;;;5099421;28;20291;-58
2024/02/21 12:18:40;;;;;;;16.03;5.27;;;;;;;;;;5113961;28;20333;-60
2024/02/21 12:21:05;;;;;;;10.90;4.47;;;;;;;;;;5123058;28;20292;-59
2024/02/21 12:23:30;;;;;;;14.03;4.80;;;;;;;;;;5111033;28;20075;-60
2024/02/21 12:25:56;;;;;;;22.13;6.60;;;;;;;;;;5112911;28;20123;-57
2024/02/21 12:28:22;;;;;;;10.65;5.30;;;;;;;;;;5102309;28;20025;-60
2024/02/21 12:30:47;;;;;;;13.15;5.00;;;;;;;;;;5124120;28;20031;-59
2024/02/21 12:33:16;;;;;;;13.93;4.67;;;;;;;;;;5118071;28;20023;-58
2024/02/21 12:35:41;;;;;;;16.47;5.07;;;;;;;;;;5113579;28;20265;-59
2024/02/21 12:38:07;;;;;;;8.87;4.63;;;;;;;;;;5103527;28;20276;-59
2024/02/21 12:40:32;;;;;;;13.43;4.50;;;;;;;;;;5122917;28;20036;-58
2024/02/21 12:42:59;;;;;;;12.33;4.97;;;;;;;;;;5107123;28;20032;-60
2024/02/21 12:45:24;;;;;;;13.40;5.32;;;;;;;;;;5107611;28;20294;-53
2024/02/21 12:47:49;;;;;;;13.20;4.33;;;;;;;;;;5107524;28;20032;-59
2024/02/21 12:50:15;;;;;;;8.63;4.55;;;;;;;;;;5114136;28;20036;-59
2024/02/21 12:52:41;;;;;;;17.73;4.78;;;;;;;;;;5109777;28;20043;-60
2024/02/21 12:55:06;;;;;;;12.10;5.47;;;;;;;;;;5120271;28;20091;-59
2024/02/21 12:57:32;;;;;;;;;;;;;;;;;;5113067;28;20043;-58
2024/02/21 12:59:57;;;;;;;12.10;5.17;;;;;;;;;;5116156;28;19975;-61
2024/02/21 13:02:23;;;;;;;16.63;4.57;;;;;;;;;;5112020;28;20115;-59
2024/02/21 13:04:49;;;;;;;12.20;4.33;;;;;;;;;;5107304;28;20074;-60
2024/02/21 13:07:14;;;;;;;12.38;4.32;;;;;;;;;;5113789;28;20419;-58
2024/02/21 13:09:40;;;;;;;15.15;4.30;;;;;;;;;;5109205;28;20040;-59
2024/02/21 13:12:05;;;;;;;11.37;3.80;;;;;;;;;;5116008;28;20031;-59
2024/02/21 13:14:33;;;;;;;10.88;4.35;;;;;;;;;;5111605;28;20039;-59
2024/02/21 13:16:58;;;;;;;11.47;4.67;;;;;;;;;;5109695;28;20036;-61
2024/02/21 13:19:23;;;;;;;16.67;4.27;;;;;;;;;;5110582;28;20318;-60
2024/02/21 13:21:50;;;;;;;15.43;4.67;;;;;;;;;;5112947;28;20039;-59
2024/02/21 13:24:15;;;;;;;16.03;4.23;;;;;;;;;;5116720;28;20276;-58
2024/02/21 13:26:41;;;;;;;13.63;4.43;;;;;;;;;;5115956;28;20275;-59
2024/02/21 13:29:06;;;;;;;11.45;4.07;;;;;;;;;;5097932;28;20044;-57
2024/02/21 13:31:32;;;;;;;13.70;4.70;;;;;;;;;;5130670;28;20036;-58
2024/02/21 13:33:57;;;;;;;20.52;4.90;;;;;;;;;;5111607;28;20053;-57
2024/02/21 13:36:23;;;;;;;14.43;4.67;;;;;;;;;;5102565;28;20028;-58
2024/02/21 13:38:48;;;;;;;11.82;4.35;;;;;;;;;;5117024;28;20051;-58
2024/02/21 13:41:14;;;;;;;12.38;3.75;;;;;;;;;;5120910;28;20028;-58
2024/02/21 13:43:40;;;;;;;11.63;4.30;;;;;;;;;;5113418;28;20182;-59
2024/02/21 13:46:11;;;;;;;15.93;5.00;;;;;;;;;;5115199;28;20276;-58
2024/02/21 13:48:36;;;;;;;11.73;4.07;;;;;;;;;;5115244;28;20028;-60
2024/02/21 13:51:02;;;;;;;9.98;4.10;;;;;;;;;;5112425;28;20295;-60
2024/02/21 13:53:27;;;;;;;11.77;3.70;;;;;;;;;;5120344;28;20127;-59
2024/02/21 13:55:53;;;;;;;10.07;4.32;;;;;;;;;;5117180;28;20040;-60
2024/02/21 13:58:18;;;;;;;7.27;3.63;;;;;;;;;;5106983;28;20031;-62
2024/02/21 14:00:43;;;;;;;7.87;3.30;;;;;;;;;;5109319;28;20041;-59
2024/02/21 14:03:09;;;;;;;9.20;4.00;;;;;;;;;;5117354;28;20024;-60
2024/02/21 14:05:35;;;;;;;9.15;3.55;;;;;;;;;;5123275;28;20062;-60
2024/02/21 14:08:00;;;;;;;9.03;3.93;;;;;;;;;;5117994;28;20055;-60
2024/02/21 14:10:25;;;;;;;6.23;3.50;;;;;;;;;;5116794;28;20043;-59
2024/02/21 14:12:50;;;;;;;7.67;3.13;;;;;;;;;;5111535;28;20039;-58
2024/02/21 14:15:16;;;;;;;12.57;3.33;;;;;;;;;;5105397;28;20059;-60
2024/02/21 14:17:42;;;;;;;11.15;3.50;;;;;;;;;;5114992;28;20100;-58
2024/02/21 14:20:08;;;;;;;11.93;2.88;;;;;;;;;;5108767;28;20028;-59
2024/02/21 14:22:34;;;;;;;10.80;3.28;;;;;;;;;;5106707;28;20088;-61
2024/02/21 14:24:59;;;;;;;10.25;2.92;;;;;;;;;;5116549;28;20016;-58
2024/02/21 14:27:25;;;;;;;10.85;2.65;;;;;;;;;;5108135;28;20076;-56